sensor_id;sensor_type;location;lat;lon;timestamp;P1;durP1;ratioP1;P2;durP2;ratioP2
14282;SDS011;7225;59.282;18.344;2023-03-12T00:02:02;1.43;;;1.33;;
14282;SDS011;7225;59.282;18.344;2023-03-12T00:04:30;1.90;;;1.60;;
14282;SDS011;7225;59.282;18.344;2023-03-12T00:06:59;3.37;;;1.60;;
14282;SDS011;7225;59.282;18.344;2023-03-12T00:09:27;5.73;;;1.77;;
14282;SDS011;7225;59.282;18.344;2023-03-12T00:11:54;1.30;;;1.20;;
14282;SDS011;7225;59.282;18.344;2023-03-12T00:14:21;2.60;;;1.50;;
14282;SDS011;7225;59.282;18.344;2023-03-12T00:16:48;3.37;;;1.50;;
14282;SDS011;7225;59.282;18.344;2023-03-12T00:19:15;3.17;;;1.97;;
14282;SDS011;7225;59.282;18.344;2023-03-12T00:21:42;2.17;;;1.13;;
14282;SDS011;7225;59.282;18.344;2023-03-12T00:24:09;1.33;;;1.17;;
14282;SDS011;7225;59.282;18.344;2023-03-12T00:26:36;2.53;;;1.30;;
14282;SDS011;7225;59.282;18.344;2023-03-12T00:29:03;2.50;;;1.73;;
14282;SDS011;7225;59.282;18.344;2023-03-12T00:31:30;1.70;;;1.40;;
14282;SDS011;7225;59.282;18.344;2023-03-12T00:33:59;4.13;;;1.80;;
14282;SDS011;7225;59.282;18.344;2023-03-12T00:36:29;3.17;;;1.63;;
14282;SDS011;7225;59.282;18.344;2023-03-12T00:38:58;2.90;;;1.70;;
14282;SDS011;7225;59.282;18.344;2023-03-12T00:41:26;2.43;;;1.50;;
14282;SDS011;7225;59.282;18.344;2023-03-12T00:43:54;2.43;;;1.30;;
14282;SDS011;7225;59.282;18.344;2023-03-12T00:46:21;2.40;;;1.47;;
14282;SDS011;7225;59.282;18.344;2023-03-12T00:48:48;3.00;;;1.53;;
14282;SDS011;7225;59.282;18.344;2023-03-12T00:51:16;1.37;;;1.23;;
14282;SDS011;7225;59.282;18.344;2023-03-12T00:53:43;1.93;;;1.37;;
14282;SDS011;7225;59.282;18.344;2023-03-12T00:56:10;1.20;;;1.10;;
14282;SDS011;7225;59.282;18.344;2023-03-12T00:58:37;2.40;;;1.50;;
14282;SDS011;7225;59.282;18.344;2023-03-12T01:01:04;1.93;;;1.27;;
14282;SDS011;7225;59.282;18.344;2023-03-12T01:03:31;1.93;;;1.43;;
14282;SDS011;7225;59.282;18.344;2023-03-12T01:05:58;1.47;;;1.00;;
14282;SDS011;7225;59.282;18.344;2023-03-12T01:08:25;1.93;;;1.40;;
14282;SDS011;7225;59.282;18.344;2023-03-12T01:10:53;2.20;;;1.20;;
14282;SDS011;7225;59.282;18.344;2023-03-12T01:13:20;1.30;;;1.20;;
14282;SDS011;7225;59.282;18.344;2023-03-12T01:15:47;1.93;;;1.40;;
14282;SDS011;7225;59.282;18.344;2023-03-12T01:18:14;1.63;;;1.07;;
14282;SDS011;7225;59.282;18.344;2023-03-12T01:20:41;2.20;;;1.50;;
14282;SDS011;7225;59.282;18.344;2023-03-12T01:23:08;1.33;;;1.23;;
14282;SDS011;7225;59.282;18.344;2023-03-12T01:25:35;2.57;;;1.57;;
14282;SDS011;7225;59.282;18.344;2023-03-12T01:28:03;2.83;;;1.10;;
14282;SDS011;7225;59.282;18.344;2023-03-12T01:30:31;4.10;;;1.90;;
14282;SDS011;7225;59.282;18.344;2023-03-12T01:32:58;3.17;;;1.63;;
14282;SDS011;7225;59.282;18.344;2023-03-12T01:35:25;3.80;;;1.63;;
14282;SDS011;7225;59.282;18.344;2023-03-12T01:37:52;3.90;;;1.73;;
14282;SDS011;7225;59.282;18.344;2023-03-12T01:40:21;3.80;;;1.50;;
14282;SDS011;7225;59.282;18.344;2023-03-12T01:42:55;3.83;;;2.10;;
14282;SDS011;7225;59.282;18.344;2023-03-12T01:48:21;2.43;;;1.70;;
14282;SDS011;7225;59.282;18.344;2023-03-12T01:50:49;2.73;;;1.60;;
14282;SDS011;7225;59.282;18.344;2023-03-12T01:53:16;3.10;;;1.53;;
14282;SDS011;7225;59.282;18.344;2023-03-12T01:55:43;1.43;;;1.23;;
14282;SDS011;7225;59.282;18.344;2023-03-12T01:58:10;2.30;;;1.60;;
14282;SDS011;7225;59.282;18.344;2023-03-12T02:00:37;5.37;;;1.90;;
14282;SDS011;7225;59.282;18.344;2023-03-12T02:03:05;5.17;;;1.77;;
14282;SDS011;7225;59.282;18.344;2023-03-12T02:08:09;2.47;;;1.90;;
14282;SDS011;7225;59.282;18.344;2023-03-12T02:10:37;2.17;;;1.70;;
14282;SDS011;7225;59.282;18.344;2023-03-12T02:13:04;2.77;;;2.07;;
14282;SDS011;7225;59.282;18.344;2023-03-12T02:15:32;2.57;;;2.03;;
14282;SDS011;7225;59.282;18.344;2023-03-12T02:18:01;2.20;;;1.47;;
14282;SDS011;7225;59.282;18.344;2023-03-12T02:20:35;2.70;;;1.90;;
14282;SDS011;7225;59.282;18.344;2023-03-12T02:23:24;2.70;;;2.03;;
14282;SDS011;7225;59.282;18.344;2023-03-12T02:26:06;3.73;;;1.70;;
14282;SDS011;7225;59.282;18.344;2023-03-12T02:28:35;2.10;;;1.87;;
14282;SDS011;7225;59.282;18.344;2023-03-12T02:31:08;2.03;;;1.63;;
14282;SDS011;7225;59.282;18.344;2023-03-12T02:33:38;6.43;;;1.57;;
14282;SDS011;7225;59.282;18.344;2023-03-12T02:36:05;4.27;;;1.70;;
14282;SDS011;7225;59.282;18.344;2023-03-12T02:38:38;2.27;;;1.47;;
14282;SDS011;7225;59.282;18.344;2023-03-12T02:43:43;2.47;;;1.73;;
14282;SDS011;7225;59.282;18.344;2023-03-12T02:46:12;2.13;;;1.50;;
14282;SDS011;7225;59.282;18.344;2023-03-12T02:48:40;3.37;;;1.53;;
14282;SDS011;7225;59.282;18.344;2023-03-12T02:51:07;2.80;;;1.80;;
14282;SDS011;7225;59.282;18.344;2023-03-12T02:53:34;3.00;;;1.73;;
14282;SDS011;7225;59.282;18.344;2023-03-12T02:56:01;2.47;;;1.80;;
14282;SDS011;7225;59.282;18.344;2023-03-12T02:58:29;1.73;;;1.33;;
14282;SDS011;7225;59.282;18.344;2023-03-12T03:00:56;2.20;;;1.20;;
14282;SDS011;7225;59.282;18.344;2023-03-12T03:03:23;2.37;;;1.60;;
14282;SDS011;7225;59.282;18.344;2023-03-12T03:05:50;3.27;;;1.50;;
14282;SDS011;7225;59.282;18.344;2023-03-12T03:08:17;3.47;;;1.50;;
14282;SDS011;7225;59.282;18.344;2023-03-12T03:10:44;1.87;;;1.23;;
14282;SDS011;7225;59.282;18.344;2023-03-12T03:13:11;2.13;;;1.50;;
14282;SDS011;7225;59.282;18.344;2023-03-12T03:15:38;2.90;;;1.23;;
14282;SDS011;7225;59.282;18.344;2023-03-12T03:18:06;6.00;;;1.20;;
14282;SDS011;7225;59.282;18.344;2023-03-12T03:20:33;2.90;;;1.70;;
14282;SDS011;7225;59.282;18.344;2023-03-12T03:23:00;2.23;;;1.13;;
14282;SDS011;7225;59.282;18.344;2023-03-12T03:25:26;2.03;;;1.30;;
14282;SDS011;7225;59.282;18.344;2023-03-12T03:27:53;1.80;;;1.17;;
14282;SDS011;7225;59.282;18.344;2023-03-12T03:30:21;2.90;;;1.30;;
14282;SDS011;7225;59.282;18.344;2023-03-12T03:32:48;2.47;;;1.47;;
14282;SDS011;7225;59.282;18.344;2023-03-12T03:35:16;1.87;;;1.20;;
14282;SDS011;7225;59.282;18.344;2023-03-12T03:37:43;4.40;;;1.30;;
14282;SDS011;7225;59.282;18.344;2023-03-12T03:40:10;1.43;;;1.20;;
14282;SDS011;7225;59.282;18.344;2023-03-12T03:42:38;2.30;;;1.00;;
14282;SDS011;7225;59.282;18.344;2023-03-12T03:45:05;2.73;;;1.50;;
14282;SDS011;7225;59.282;18.344;2023-03-12T03:47:33;3.03;;;1.23;;
14282;SDS011;7225;59.282;18.344;2023-03-12T03:50:00;1.93;;;1.17;;
14282;SDS011;7225;59.282;18.344;2023-03-12T03:52:28;1.50;;;1.20;;
14282;SDS011;7225;59.282;18.344;2023-03-12T03:54:54;1.10;;;0.80;;
14282;SDS011;7225;59.282;18.344;2023-03-12T03:57:22;1.47;;;1.07;;
14282;SDS011;7225;59.282;18.344;2023-03-12T03:59:49;2.60;;;1.20;;
14282;SDS011;7225;59.282;18.344;2023-03-12T04:02:16;1.47;;;1.03;;
14282;SDS011;7225;59.282;18.344;2023-03-12T04:04:43;2.70;;;1.40;;
14282;SDS011;7225;59.282;18.344;2023-03-12T04:07:10;1.77;;;1.33;;
14282;SDS011;7225;59.282;18.344;2023-03-12T04:09:38;3.07;;;1.30;;
14282;SDS011;7225;59.282;18.344;2023-03-12T04:12:05;2.00;;;1.23;;
14282;SDS011;7225;59.282;18.344;2023-03-12T04:14:32;3.03;;;1.50;;
14282;SDS011;7225;59.282;18.344;2023-03-12T04:16:59;2.70;;;1.50;;
14282;SDS011;7225;59.282;18.344;2023-03-12T04:19:26;1.83;;;1.17;;
14282;SDS011;7225;59.282;18.344;2023-03-12T04:21:53;4.97;;;1.80;;
14282;SDS011;7225;59.282;18.344;2023-03-12T04:24:20;1.70;;;1.50;;
14282;SDS011;7225;59.282;18.344;2023-03-12T04:26:47;2.77;;;1.67;;
14282;SDS011;7225;59.282;18.344;2023-03-12T04:29:14;2.43;;;1.30;;
14282;SDS011;7225;59.282;18.344;2023-03-12T04:31:41;2.60;;;1.60;;
14282;SDS011;7225;59.282;18.344;2023-03-12T04:34:08;2.13;;;1.80;;
14282;SDS011;7225;59.282;18.344;2023-03-12T04:36:39;1.60;;;1.50;;
14282;SDS011;7225;59.282;18.344;2023-03-12T04:39:06;2.47;;;1.43;;
14282;SDS011;7225;59.282;18.344;2023-03-12T04:41:33;2.00;;;1.30;;
14282;SDS011;7225;59.282;18.344;2023-03-12T04:44:01;2.20;;;1.63;;
14282;SDS011;7225;59.282;18.344;2023-03-12T04:46:29;1.83;;;1.10;;
14282;SDS011;7225;59.282;18.344;2023-03-12T04:48:56;3.30;;;1.90;;
14282;SDS011;7225;59.282;18.344;2023-03-12T04:51:23;2.83;;;1.77;;
14282;SDS011;7225;59.282;18.344;2023-03-12T04:53:50;2.13;;;1.50;;
14282;SDS011;7225;59.282;18.344;2023-03-12T04:56:17;4.70;;;1.60;;
14282;SDS011;7225;59.282;18.344;2023-03-12T04:58:44;2.17;;;1.60;;
14282;SDS011;7225;59.282;18.344;2023-03-12T05:01:17;2.50;;;2.00;;
14282;SDS011;7225;59.282;18.344;2023-03-12T05:03:50;3.53;;;1.87;;
14282;SDS011;7225;59.282;18.344;2023-03-12T05:06:17;4.30;;;1.60;;
14282;SDS011;7225;59.282;18.344;2023-03-12T05:08:45;2.60;;;2.03;;
14282;SDS011;7225;59.282;18.344;2023-03-12T05:11:13;2.60;;;1.27;;
14282;SDS011;7225;59.282;18.344;2023-03-12T05:13:41;2.60;;;1.70;;
14282;SDS011;7225;59.282;18.344;2023-03-12T05:16:08;3.70;;;2.03;;
14282;SDS011;7225;59.282;18.344;2023-03-12T05:18:36;2.13;;;1.57;;
14282;SDS011;7225;59.282;18.344;2023-03-12T05:21:05;2.63;;;1.80;;
14282;SDS011;7225;59.282;18.344;2023-03-12T05:23:34;3.30;;;1.60;;
14282;SDS011;7225;59.282;18.344;2023-03-12T05:26:01;2.37;;;1.30;;
14282;SDS011;7225;59.282;18.344;2023-03-12T05:28:28;2.37;;;1.60;;
14282;SDS011;7225;59.282;18.344;2023-03-12T05:30:56;1.57;;;1.30;;
14282;SDS011;7225;59.282;18.344;2023-03-12T05:33:25;2.87;;;1.53;;
14282;SDS011;7225;59.282;18.344;2023-03-12T05:35:53;2.13;;;1.67;;
14282;SDS011;7225;59.282;18.344;2023-03-12T05:38:20;2.37;;;1.67;;
14282;SDS011;7225;59.282;18.344;2023-03-12T05:40:51;2.57;;;1.40;;
14282;SDS011;7225;59.282;18.344;2023-03-12T05:43:19;2.63;;;1.53;;
14282;SDS011;7225;59.282;18.344;2023-03-12T05:45:46;4.30;;;1.63;;
14282;SDS011;7225;59.282;18.344;2023-03-12T05:48:13;2.03;;;1.40;;
14282;SDS011;7225;59.282;18.344;2023-03-12T05:50:41;2.47;;;1.37;;
14282;SDS011;7225;59.282;18.344;2023-03-12T05:53:08;2.50;;;1.60;;
14282;SDS011;7225;59.282;18.344;2023-03-12T05:55:36;2.13;;;1.40;;
14282;SDS011;7225;59.282;18.344;2023-03-12T05:58:04;4.37;;;1.50;;
14282;SDS011;7225;59.282;18.344;2023-03-12T06:00:32;3.67;;;1.57;;
14282;SDS011;7225;59.282;18.344;2023-03-12T06:03:04;1.93;;;1.30;;
14282;SDS011;7225;59.282;18.344;2023-03-12T06:05:32;1.83;;;1.17;;
14282;SDS011;7225;59.282;18.344;2023-03-12T06:08:00;4.47;;;1.30;;
14282;SDS011;7225;59.282;18.344;2023-03-12T06:10:28;3.00;;;1.47;;
14282;SDS011;7225;59.282;18.344;2023-03-12T06:12:56;2.43;;;1.37;;
14282;SDS011;7225;59.282;18.344;2023-03-12T06:15:23;1.97;;;1.60;;
14282;SDS011;7225;59.282;18.344;2023-03-12T06:17:51;1.33;;;1.00;;
14282;SDS011;7225;59.282;18.344;2023-03-12T06:20:18;2.90;;;1.40;;
14282;SDS011;7225;59.282;18.344;2023-03-12T06:22:45;2.10;;;1.30;;
14282;SDS011;7225;59.282;18.344;2023-03-12T06:25:12;2.37;;;1.57;;
14282;SDS011;7225;59.282;18.344;2023-03-12T06:27:39;2.40;;;1.27;;
14282;SDS011;7225;59.282;18.344;2023-03-12T06:30:06;2.67;;;1.40;;
14282;SDS011;7225;59.282;18.344;2023-03-12T06:32:34;1.53;;;1.03;;
14282;SDS011;7225;59.282;18.344;2023-03-12T06:35:01;3.83;;;1.90;;
14282;SDS011;7225;59.282;18.344;2023-03-12T06:37:29;1.93;;;1.60;;
14282;SDS011;7225;59.282;18.344;2023-03-12T06:39:57;1.77;;;1.00;;
14282;SDS011;7225;59.282;18.344;2023-03-12T06:42:24;1.60;;;1.37;;
14282;SDS011;7225;59.282;18.344;2023-03-12T06:44:51;1.97;;;1.37;;
14282;SDS011;7225;59.282;18.344;2023-03-12T06:47:19;1.97;;;1.37;;
14282;SDS011;7225;59.282;18.344;2023-03-12T06:49:46;2.30;;;1.20;;
14282;SDS011;7225;59.282;18.344;2023-03-12T06:52:13;3.63;;;1.33;;
14282;SDS011;7225;59.282;18.344;2023-03-12T06:54:40;2.17;;;1.27;;
14282;SDS011;7225;59.282;18.344;2023-03-12T06:57:07;2.70;;;1.20;;
14282;SDS011;7225;59.282;18.344;2023-03-12T06:59:34;2.33;;;1.10;;
14282;SDS011;7225;59.282;18.344;2023-03-12T07:02:02;2.03;;;1.17;;
14282;SDS011;7225;59.282;18.344;2023-03-12T07:04:29;1.90;;;1.50;;
14282;SDS011;7225;59.282;18.344;2023-03-12T07:06:56;2.67;;;1.23;;
14282;SDS011;7225;59.282;18.344;2023-03-12T07:09:23;3.00;;;1.20;;
14282;SDS011;7225;59.282;18.344;2023-03-12T07:11:50;2.53;;;1.40;;
14282;SDS011;7225;59.282;18.344;2023-03-12T07:14:16;1.03;;;0.80;;
14282;SDS011;7225;59.282;18.344;2023-03-12T07:16:45;1.30;;;1.13;;
14282;SDS011;7225;59.282;18.344;2023-03-12T07:19:13;1.10;;;0.80;;
14282;SDS011;7225;59.282;18.344;2023-03-12T07:21:40;1.63;;;1.27;;
14282;SDS011;7225;59.282;18.344;2023-03-12T07:24:07;2.57;;;1.00;;
14282;SDS011;7225;59.282;18.344;2023-03-12T07:26:34;1.00;;;0.90;;
14282;SDS011;7225;59.282;18.344;2023-03-12T07:29:02;3.40;;;1.93;;
14282;SDS011;7225;59.282;18.344;2023-03-12T07:31:30;1.83;;;1.00;;
14282;SDS011;7225;59.282;18.344;2023-03-12T07:33:57;1.40;;;1.00;;
14282;SDS011;7225;59.282;18.344;2023-03-12T07:36:24;1.53;;;0.77;;
14282;SDS011;7225;59.282;18.344;2023-03-12T07:38:51;2.00;;;0.90;;
14282;SDS011;7225;59.282;18.344;2023-03-12T07:41:18;4.37;;;1.40;;
14282;SDS011;7225;59.282;18.344;2023-03-12T07:43:45;1.30;;;0.93;;
14282;SDS011;7225;59.282;18.344;2023-03-12T07:46:12;3.87;;;1.20;;
14282;SDS011;7225;59.282;18.344;2023-03-12T07:48:40;1.10;;;0.90;;
14282;SDS011;7225;59.282;18.344;2023-03-12T07:51:09;0.90;;;0.80;;
14282;SDS011;7225;59.282;18.344;2023-03-12T07:53:36;1.23;;;0.80;;
14282;SDS011;7225;59.282;18.344;2023-03-12T07:56:03;2.13;;;1.00;;
14282;SDS011;7225;59.282;18.344;2023-03-12T07:58:30;1.60;;;1.10;;
14282;SDS011;7225;59.282;18.344;2023-03-12T08:00:59;1.23;;;0.77;;
14282;SDS011;7225;59.282;18.344;2023-03-12T08:03:26;1.00;;;0.90;;
14282;SDS011;7225;59.282;18.344;2023-03-12T08:05:59;1.10;;;1.00;;
14282;SDS011;7225;59.282;18.344;2023-03-12T08:08:28;0.80;;;0.60;;
14282;SDS011;7225;59.282;18.344;2023-03-12T08:10:57;1.40;;;0.70;;
14282;SDS011;7225;59.282;18.344;2023-03-12T08:13:25;1.70;;;0.70;;
14282;SDS011;7225;59.282;18.344;2023-03-12T08:15:52;0.97;;;0.63;;
14282;SDS011;7225;59.282;18.344;2023-03-12T08:18:20;1.43;;;0.90;;
14282;SDS011;7225;59.282;18.344;2023-03-12T08:20:51;1.00;;;0.80;;
14282;SDS011;7225;59.282;18.344;2023-03-12T08:23:19;0.80;;;0.77;;
14282;SDS011;7225;59.282;18.344;2023-03-12T08:25:48;3.50;;;1.93;;
14282;SDS011;7225;59.282;18.344;2023-03-12T08:28:16;2.73;;;0.97;;
14282;SDS011;7225;59.282;18.344;2023-03-12T08:30:53;1.50;;;0.90;;
14282;SDS011;7225;59.282;18.344;2023-03-12T08:33:23;0.70;;;0.70;;
14282;SDS011;7225;59.282;18.344;2023-03-12T08:35:50;1.60;;;0.90;;
14282;SDS011;7225;59.282;18.344;2023-03-12T08:38:18;0.67;;;0.53;;
14282;SDS011;7225;59.282;18.344;2023-03-12T08:40:45;1.57;;;0.80;;
14282;SDS011;7225;59.282;18.344;2023-03-12T08:43:12;1.13;;;0.70;;
14282;SDS011;7225;59.282;18.344;2023-03-12T08:45:39;1.60;;;0.70;;
14282;SDS011;7225;59.282;18.344;2023-03-12T08:48:06;1.70;;;0.83;;
14282;SDS011;7225;59.282;18.344;2023-03-12T08:50:33;0.33;;;0.33;;
14282;SDS011;7225;59.282;18.344;2023-03-12T08:53:00;0.50;;;0.40;;
14282;SDS011;7225;59.282;18.344;2023-03-12T08:55:27;0.47;;;0.37;;
14282;SDS011;7225;59.282;18.344;2023-03-12T08:57:55;0.70;;;0.60;;
14282;SDS011;7225;59.282;18.344;2023-03-12T09:00:22;1.20;;;0.73;;
14282;SDS011;7225;59.282;18.344;2023-03-12T09:02:50;0.33;;;0.30;;
14282;SDS011;7225;59.282;18.344;2023-03-12T09:05:18;0.70;;;0.70;;
14282;SDS011;7225;59.282;18.344;2023-03-12T09:07:46;1.03;;;0.40;;
14282;SDS011;7225;59.282;18.344;2023-03-12T09:10:15;2.20;;;0.63;;
14282;SDS011;7225;59.282;18.344;2023-03-12T09:12:42;0.87;;;0.63;;
14282;SDS011;7225;59.282;18.344;2023-03-12T09:15:10;1.90;;;0.70;;
14282;SDS011;7225;59.282;18.344;2023-03-12T09:17:37;2.90;;;0.60;;
14282;SDS011;7225;59.282;18.344;2023-03-12T09:20:05;0.97;;;0.47;;
14282;SDS011;7225;59.282;18.344;2023-03-12T09:22:35;0.30;;;0.30;;
14282;SDS011;7225;59.282;18.344;2023-03-12T09:25:03;3.57;;;0.70;;
14282;SDS011;7225;59.282;18.344;2023-03-12T09:27:34;1.03;;;0.50;;
14282;SDS011;7225;59.282;18.344;2023-03-12T09:30:03;3.63;;;0.50;;
14282;SDS011;7225;59.282;18.344;2023-03-12T09:32:32;1.27;;;0.50;;
14282;SDS011;7225;59.282;18.344;2023-03-12T09:34:59;1.20;;;0.40;;
14282;SDS011;7225;59.282;18.344;2023-03-12T09:37:26;1.80;;;0.30;;
14282;SDS011;7225;59.282;18.344;2023-03-12T09:39:53;0.70;;;0.40;;
14282;SDS011;7225;59.282;18.344;2023-03-12T09:42:29;0.30;;;0.30;;
14282;SDS011;7225;59.282;18.344;2023-03-12T09:45:04;2.07;;;0.60;;
14282;SDS011;7225;59.282;18.344;2023-03-12T09:47:36;0.20;;;0.20;;
14282;SDS011;7225;59.282;18.344;2023-03-12T09:52:50;0.70;;;0.50;;
14282;SDS011;7225;59.282;18.344;2023-03-12T09:55:22;0.57;;;0.30;;
14282;SDS011;7225;59.282;18.344;2023-03-12T09:57:50;0.97;;;0.43;;
14282;SDS011;7225;59.282;18.344;2023-03-12T10:00:21;1.70;;;0.60;;
14282;SDS011;7225;59.282;18.344;2023-03-12T10:16:24;0.60;;;0.50;;
14282;SDS011;7225;59.282;18.344;2023-03-12T10:19:14;0.77;;;0.30;;
14282;SDS011;7225;59.282;18.344;2023-03-12T10:22:42;1.17;;;0.40;;
14282;SDS011;7225;59.282;18.344;2023-03-12T10:28:44;0.50;;;0.40;;
14282;SDS011;7225;59.282;18.344;2023-03-12T10:30:57;1.77;;;0.40;;
14282;SDS011;7225;59.282;18.344;2023-03-12T10:34:14;0.83;;;0.57;;
14282;SDS011;7225;59.282;18.344;2023-03-12T10:39:15;1.60;;;0.70;;
14282;SDS011;7225;59.282;18.344;2023-03-12T10:41:45;2.30;;;0.50;;
14282;SDS011;7225;59.282;18.344;2023-03-12T10:44:16;0.30;;;0.30;;
14282;SDS011;7225;59.282;18.344;2023-03-12T10:49:41;0.40;;;0.30;;
14282;SDS011;7225;59.282;18.344;2023-03-12T10:52:15;1.33;;;0.47;;
14282;SDS011;7225;59.282;18.344;2023-03-12T10:54:45;1.17;;;0.47;;
14282;SDS011;7225;59.282;18.344;2023-03-12T10:57:17;0.40;;;0.40;;
14282;SDS011;7225;59.282;18.344;2023-03-12T10:59:46;0.43;;;0.30;;
14282;SDS011;7225;59.282;18.344;2023-03-12T11:05:00;1.20;;;0.57;;
14282;SDS011;7225;59.282;18.344;2023-03-12T11:12:36;2.17;;;0.40;;
14282;SDS011;7225;59.282;18.344;2023-03-12T11:15:18;1.73;;;0.30;;
14282;SDS011;7225;59.282;18.344;2023-03-12T11:20:50;0.50;;;0.30;;
14282;SDS011;7225;59.282;18.344;2023-03-12T11:23:23;0.63;;;0.40;;
14282;SDS011;7225;59.282;18.344;2023-03-12T11:26:00;0.17;;;0.13;;
14282;SDS011;7225;59.282;18.344;2023-03-12T11:28:48;1.57;;;0.50;;
14282;SDS011;7225;59.282;18.344;2023-03-12T11:31:24;0.53;;;0.40;;
14282;SDS011;7225;59.282;18.344;2023-03-12T11:33:56;1.00;;;0.23;;
14282;SDS011;7225;59.282;18.344;2023-03-12T11:36:34;0.30;;;0.27;;
14282;SDS011;7225;59.282;18.344;2023-03-12T11:39:18;0.57;;;0.43;;
14282;SDS011;7225;59.282;18.344;2023-03-12T11:42:01;0.60;;;0.30;;
14282;SDS011;7225;59.282;18.344;2023-03-12T11:44:49;0.30;;;0.30;;
14282;SDS011;7225;59.282;18.344;2023-03-12T11:47:30;1.43;;;0.40;;
14282;SDS011;7225;59.282;18.344;2023-03-12T11:55:38;1.50;;;0.30;;
14282;SDS011;7225;59.282;18.344;2023-03-12T11:58:27;1.37;;;0.20;;
14282;SDS011;7225;59.282;18.344;2023-03-12T12:01:02;0.30;;;0.30;;
14282;SDS011;7225;59.282;18.344;2023-03-12T12:36:41;0.60;;;0.50;;
14282;SDS011;7225;59.282;18.344;2023-03-12T12:39:22;0.43;;;0.40;;
14282;SDS011;7225;59.282;18.344;2023-03-12T12:41:58;2.90;;;0.60;;
14282;SDS011;7225;59.282;18.344;2023-03-12T12:44:48;1.60;;;0.60;;
14282;SDS011;7225;59.282;18.344;2023-03-12T12:47:19;1.73;;;0.90;;
14282;SDS011;7225;59.282;18.344;2023-03-12T12:49:55;2.83;;;0.30;;
14282;SDS011;7225;59.282;18.344;2023-03-12T12:52:24;0.83;;;0.40;;
14282;SDS011;7225;59.282;18.344;2023-03-12T12:57:37;1.53;;;0.57;;
14282;SDS011;7225;59.282;18.344;2023-03-12T13:02:51;1.07;;;0.40;;
14282;SDS011;7225;59.282;18.344;2023-03-12T13:07:48;0.30;;;0.30;;
14282;SDS011;7225;59.282;18.344;2023-03-12T13:13:03;1.40;;;0.30;;
14282;SDS011;7225;59.282;18.344;2023-03-12T13:15:38;0.53;;;0.20;;
14282;SDS011;7225;59.282;18.344;2023-03-12T13:18:20;0.77;;;0.23;;
14282;SDS011;7225;59.282;18.344;2023-03-12T13:23:25;0.00;;;0.00;;
14282;SDS011;7225;59.282;18.344;2023-03-12T13:26:03;0.60;;;0.20;;
14282;SDS011;7225;59.282;18.344;2023-03-12T13:31:35;0.83;;;0.20;;
14282;SDS011;7225;59.282;18.344;2023-03-12T13:34:28;0.10;;;0.10;;
14282;SDS011;7225;59.282;18.344;2023-03-12T13:36:57;0.97;;;0.13;;
14282;SDS011;7225;59.282;18.344;2023-03-12T13:39:30;0.13;;;0.13;;
14282;SDS011;7225;59.282;18.344;2023-03-12T13:42:24;0.23;;;0.20;;
14282;SDS011;7225;59.282;18.344;2023-03-12T13:45:19;0.87;;;0.40;;
14282;SDS011;7225;59.282;18.344;2023-03-12T13:47:48;0.27;;;0.20;;
14282;SDS011;7225;59.282;18.344;2023-03-12T13:50:21;1.60;;;0.30;;
14282;SDS011;7225;59.282;18.344;2023-03-12T13:52:49;0.63;;;0.30;;
14282;SDS011;7225;59.282;18.344;2023-03-12T13:55:44;1.90;;;0.20;;
14282;SDS011;7225;59.282;18.344;2023-03-12T13:58:25;1.50;;;0.40;;
14282;SDS011;7225;59.282;18.344;2023-03-12T14:01:00;0.80;;;0.23;;
14282;SDS011;7225;59.282;18.344;2023-03-12T14:03:32;2.77;;;0.23;;
14282;SDS011;7225;59.282;18.344;2023-03-12T14:06:09;0.97;;;0.30;;
14282;SDS011;7225;59.282;18.344;2023-03-12T14:14:04;0.20;;;0.10;;
14282;SDS011;7225;59.282;18.344;2023-03-12T14:16:46;0.50;;;0.20;;
14282;SDS011;7225;59.282;18.344;2023-03-12T14:19:17;0.47;;;0.20;;
14282;SDS011;7225;59.282;18.344;2023-03-12T14:21:48;0.73;;;0.30;;
14282;SDS011;7225;59.282;18.344;2023-03-12T14:24:36;0.50;;;0.20;;
14282;SDS011;7225;59.282;18.344;2023-03-12T14:27:10;1.50;;;0.23;;
14282;SDS011;7225;59.282;18.344;2023-03-12T14:29:51;0.40;;;0.33;;
14282;SDS011;7225;59.282;18.344;2023-03-12T14:32:22;0.60;;;0.20;;
14282;SDS011;7225;59.282;18.344;2023-03-12T14:34:56;0.40;;;0.20;;
14282;SDS011;7225;59.282;18.344;2023-03-12T14:37:48;0.60;;;0.20;;
14282;SDS011;7225;59.282;18.344;2023-03-12T14:40:25;1.27;;;0.23;;
14282;SDS011;7225;59.282;18.344;2023-03-12T14:43:22;0.40;;;0.20;;
14282;SDS011;7225;59.282;18.344;2023-03-12T14:45:59;0.67;;;0.20;;
14282;SDS011;7225;59.282;18.344;2023-03-12T14:48:29;0.60;;;0.40;;
14282;SDS011;7225;59.282;18.344;2023-03-12T14:51:03;2.00;;;0.40;;
14282;SDS011;7225;59.282;18.344;2023-03-12T14:56:01;1.43;;;0.20;;
14282;SDS011;7225;59.282;18.344;2023-03-12T14:58:30;0.10;;;0.10;;
14282;SDS011;7225;59.282;18.344;2023-03-12T15:00:59;0.57;;;0.30;;
14282;SDS011;7225;59.282;18.344;2023-03-12T15:03:29;0.50;;;0.30;;
14282;SDS011;7225;59.282;18.344;2023-03-12T15:05:58;1.13;;;0.40;;
14282;SDS011;7225;59.282;18.344;2023-03-12T15:08:25;1.77;;;0.27;;
14282;SDS011;7225;59.282;18.344;2023-03-12T15:10:54;1.90;;;0.30;;
14282;SDS011;7225;59.282;18.344;2023-03-12T15:13:23;0.93;;;0.30;;
14282;SDS011;7225;59.282;18.344;2023-03-12T15:15:53;0.70;;;0.30;;
14282;SDS011;7225;59.282;18.344;2023-03-12T15:18:25;0.47;;;0.20;;
14282;SDS011;7225;59.282;18.344;2023-03-12T15:20:54;1.33;;;0.30;;
14282;SDS011;7225;59.282;18.344;2023-03-12T15:23:23;0.43;;;0.30;;
14282;SDS011;7225;59.282;18.344;2023-03-12T15:28:58;1.27;;;0.47;;
14282;SDS011;7225;59.282;18.344;2023-03-12T15:31:26;0.67;;;0.40;;
14282;SDS011;7225;59.282;18.344;2023-03-12T15:34:11;2.67;;;0.30;;
14282;SDS011;7225;59.282;18.344;2023-03-12T15:36:46;1.47;;;0.30;;
14282;SDS011;7225;59.282;18.344;2023-03-12T15:39:23;0.83;;;0.40;;
14282;SDS011;7225;59.282;18.344;2023-03-12T15:41:52;0.63;;;0.20;;
14282;SDS011;7225;59.282;18.344;2023-03-12T15:44:27;0.67;;;0.27;;
14282;SDS011;7225;59.282;18.344;2023-03-12T15:47:08;1.07;;;0.23;;
14282;SDS011;7225;59.282;18.344;2023-03-12T15:49:37;0.23;;;0.20;;
14282;SDS011;7225;59.282;18.344;2023-03-12T15:55:06;0.90;;;0.30;;
14282;SDS011;7225;59.282;18.344;2023-03-12T15:57:52;1.03;;;0.40;;
14282;SDS011;7225;59.282;18.344;2023-03-12T16:00:22;2.83;;;0.20;;
14282;SDS011;7225;59.282;18.344;2023-03-12T16:02:50;0.90;;;0.50;;
14282;SDS011;7225;59.282;18.344;2023-03-12T16:05:20;1.23;;;0.40;;
14282;SDS011;7225;59.282;18.344;2023-03-12T16:07:50;0.50;;;0.30;;
14282;SDS011;7225;59.282;18.344;2023-03-12T16:10:18;0.20;;;0.17;;
14282;SDS011;7225;59.282;18.344;2023-03-12T16:12:48;1.40;;;0.40;;
14282;SDS011;7225;59.282;18.344;2023-03-12T16:15:21;0.50;;;0.40;;
14282;SDS011;7225;59.282;18.344;2023-03-12T16:17:54;0.20;;;0.20;;
14282;SDS011;7225;59.282;18.344;2023-03-12T16:20:21;0.40;;;0.20;;
14282;SDS011;7225;59.282;18.344;2023-03-12T16:22:48;0.60;;;0.20;;
14282;SDS011;7225;59.282;18.344;2023-03-12T16:25:15;0.40;;;0.20;;
14282;SDS011;7225;59.282;18.344;2023-03-12T16:27:46;0.87;;;0.40;;
14282;SDS011;7225;59.282;18.344;2023-03-12T16:30:25;1.13;;;0.43;;
14282;SDS011;7225;59.282;18.344;2023-03-12T16:32:54;0.43;;;0.20;;
14282;SDS011;7225;59.282;18.344;2023-03-12T16:35:21;0.40;;;0.20;;
14282;SDS011;7225;59.282;18.344;2023-03-12T16:37:49;0.27;;;0.20;;
14282;SDS011;7225;59.282;18.344;2023-03-12T16:40:16;0.30;;;0.20;;
14282;SDS011;7225;59.282;18.344;2023-03-12T16:42:58;0.30;;;0.30;;
14282;SDS011;7225;59.282;18.344;2023-03-12T16:45:29;1.07;;;0.50;;
14282;SDS011;7225;59.282;18.344;2023-03-12T16:48:00;0.97;;;0.77;;
14282;SDS011;7225;59.282;18.344;2023-03-12T16:50:29;1.50;;;0.20;;
14282;SDS011;7225;59.282;18.344;2023-03-12T16:52:57;0.20;;;0.20;;
14282;SDS011;7225;59.282;18.344;2023-03-12T16:55:25;1.20;;;0.30;;
14282;SDS011;7225;59.282;18.344;2023-03-12T16:57:56;0.30;;;0.27;;
14282;SDS011;7225;59.282;18.344;2023-03-12T17:00:28;0.27;;;0.20;;